الصفحة الرئيسية
METAR-TAF:

METAR-TAF

مطار :

Albert, فرنسا

دائرة عرض: 49-58-21N, خط طول: 002-41-29E, ارتفاع: 111 متر

مراقبة الطقس الحالي

تاريخ ووقت الإصدار 43 دقيقة قبل الساعة 23:00UTC
ريح 18 عقدة من الشمال الشرقي
درجة الحرارة 3°درجة مئوية
الرطوبة 87%
ضغط 1009 hPa
الرؤية 10 كم أو أكثر
غيوم قليلة على ارتفاع 2000 قدم
غيوم مفككة على ارتفاع 3800 قدم
غيوم مفككة على ارتفاع 4500 قدم
مطر خفيف

METAR: LFAQ 192300Z AUTO 05018KT 9999 -RA FEW020 BKN038 BKN045 03/01 Q1009

زمن: 00:43 (23:43 UTC)

توقعات

تاريخ ووقت الإصدار 9ساعات و 43 دقيقة قبل الساعة 14:00UTC
التوقعات صالحة من19 الساعة 15 UTC إلى 19 الساعة 24 UTC
ريح 15 عقدة من الشمال الشرقي
الرؤية 10 كم أو أكثر
غيوم مفككة على ارتفاع 2500 قدم
مؤقت
من 19 الساعة 15 UTC إلى 19 الساعة 24 UTC
ريح 17 عقدة من الشمال الشرقي تتزايد حتى 27 عقدة
نظرية الاحتمالات 30% :
مؤقت
من 19 الساعة 21 UTC إلى 19 الساعة 24 UTC
الرؤية: 4000 متر
ملبد بالغيوم على ارتفاع 1200 قدم
مطر خفيف, ثلوج

TAF: LFAQ 191400Z 1915/1924 05015KT 9999 BKN025 TEMPO 1915/1924 05017G27KT PROB30 TEMPO 1921/1924 4000 -RASN OVC012

أرصاد الطقس والتوقعات من أكثر من 4000 مطار (تقارير الطقس للمطار METAR والتنبؤ بالطقس بالمطارTAF).

المحطات المتاحة هي النقط الصفراء والحمراء على الخريطة.

حرك المؤشر فوق النقطة لمعرفة اسم المحطة.

ثم انقر لمعرفة أرصاد وتوقعات الطقس.

لتغيير الخارطة: اضغط على الأزرار الخضراء مع رمز الصليب الأسود للتكبير. على الزر الأخضر مع شرطة للتصغير، أو على الأسهم الخضراء للخرائط المجاورة.


METAR-TAF: